createdAt,value
2023-05-15T00:00:04.068Z,34.25
2023-05-15T00:05:09.624Z,33.65
2023-05-15T00:10:12.386Z,35.53
2023-05-15T00:15:14.243Z,33.53
2023-05-15T00:20:16.012Z,42.00
2023-05-15T00:25:19.551Z,36.80
2023-05-15T00:30:21.403Z,41.25
2023-05-15T00:35:23.591Z,40.38
2023-05-15T00:40:26.740Z,46.25
2023-05-15T00:45:30.327Z,45.72
2023-05-15T00:50:33.513Z,49.03
2023-05-15T00:55:36.502Z,49.75
2023-05-15T01:00:39.004Z,51.80
2023-05-15T01:05:41.084Z,58.78
2023-05-15T01:10:44.172Z,48.53
2023-05-15T01:15:46.221Z,58.65
2023-05-15T01:20:53.751Z,73.97
2023-05-15T01:26:30.541Z,66.47
2023-05-15T01:31:35.317Z,72.25
2023-05-15T01:36:43.348Z,70.07
2023-05-15T01:41:51.651Z,70.88
2023-05-15T01:46:57.980Z,70.28
2023-05-15T01:52:13.841Z,71.25
2023-05-15T01:57:16.403Z,66.25
2023-05-15T02:02:19.645Z,67.65
2023-05-15T02:07:22.145Z,69.95
2023-05-15T02:12:24.572Z,70.05
2023-05-15T02:17:28.034Z,69.93
2023-05-15T02:22:29.811Z,72.70
2023-05-15T02:27:42.799Z,71.97
2023-05-15T02:32:54.043Z,71.65
2023-05-15T02:38:00.264Z,68.78
2023-05-15T02:43:03.026Z,72.25
2023-05-15T02:48:05.719Z,64.88
2023-05-15T02:53:09.835Z,69.03
2023-05-15T02:58:11.812Z,60.25
2023-05-15T03:03:13.571Z,61.67
2023-05-15T03:08:15.357Z,61.25
2023-05-15T03:13:17.102Z,63.63
2023-05-15T03:18:19.675Z,64.05
2023-05-15T03:23:21.590Z,60.83
2023-05-15T03:28:23.384Z,64.53
2023-05-15T03:33:25.647Z,72.30
2023-05-15T03:38:27.537Z,59.63
2023-05-15T03:43:29.291Z,56.60
2023-05-15T03:48:31.234Z,60.95
2023-05-15T03:53:33.025Z,68.20
2023-05-15T03:58:34.795Z,60.53
2023-05-15T04:03:36.592Z,63.60
2023-05-15T04:08:39.660Z,64.90
2023-05-15T04:13:42.456Z,65.60
2023-05-15T04:18:44.255Z,62.10
2023-05-15T04:23:46.005Z,65.45
2023-05-15T04:29:00.168Z,74.30
2023-05-15T04:34:06.023Z,82.82
2023-05-15T04:39:08.420Z,85.80
2023-05-15T04:44:10.445Z,85.57
2023-05-15T04:49:12.313Z,94.82
2023-05-15T04:54:14.133Z,81.70
2023-05-15T04:59:16.616Z,87.53
2023-05-15T05:04:21.058Z,83.97
2023-05-15T05:09:22.962Z,79.43
2023-05-15T05:14:24.738Z,78.03
2023-05-15T05:19:28.343Z,70.82
2023-05-15T05:24:30.296Z,69.40
2023-05-15T05:29:32.435Z,67.35
2023-05-15T05:34:34.450Z,70.60
2023-05-15T05:39:36.201Z,71.72
2023-05-15T05:44:37.964Z,70.95
2023-05-15T05:49:40.563Z,77.68
2023-05-15T05:54:42.724Z,82.20
2023-05-15T05:59:45.967Z,79.35
2023-05-15T06:04:47.723Z,77.90
2023-05-15T06:09:49.705Z,85.50
2023-05-15T06:14:51.684Z,77.25
2023-05-15T06:19:54.632Z,81.00
2023-05-15T06:24:56.464Z,68.70
2023-05-15T06:29:58.539Z,75.60
2023-05-15T06:35:00.362Z,78.60
2023-05-15T06:40:02.207Z,73.13
2023-05-15T06:45:04.603Z,74.63
2023-05-15T06:50:07.041Z,80.55
2023-05-15T06:55:09.120Z,85.13
2023-05-15T07:00:11.595Z,77.50
2023-05-15T07:05:14.567Z,82.30
2023-05-15T07:10:16.692Z,71.28
2023-05-15T07:15:18.781Z,74.20
2023-05-15T07:20:20.793Z,70.97
2023-05-15T07:25:23.224Z,67.15
2023-05-15T07:30:25.798Z,63.60
2023-05-15T07:35:28.035Z,62.25
2023-05-15T07:40:30.324Z,67.53
2023-05-15T07:45:32.138Z,57.88
2023-05-15T07:50:35.042Z,63.30
2023-05-15T07:55:36.804Z,55.45
2023-05-15T08:00:38.726Z,60.30
2023-05-15T08:05:40.554Z,63.53
2023-05-15T08:10:42.341Z,58.55
2023-05-15T08:15:44.371Z,57.30
2023-05-15T08:20:46.548Z,58.47
2023-05-15T08:25:48.318Z,58.92
2023-05-15T08:30:50.118Z,51.13
2023-05-15T08:35:52.584Z,54.80
2023-05-15T08:40:57.752Z,53.80
2023-05-15T08:46:00.442Z,58.85
2023-05-15T08:51:03.739Z,69.75
2023-05-15T08:56:06.110Z,58.95
2023-05-15T09:01:08.426Z,61.92
2023-05-15T09:06:10.608Z,57.60
2023-05-15T09:11:13.683Z,58.17
2023-05-15T09:16:15.601Z,62.13
2023-05-15T09:21:29.025Z,53.90
2023-05-15T09:26:30.929Z,54.58
2023-05-15T09:31:36.464Z,50.75
2023-05-15T09:36:44.260Z,48.92
2023-05-15T09:41:46.077Z,53.63
2023-05-15T09:46:48.724Z,58.80
2023-05-15T09:51:50.817Z,53.50
2023-05-15T09:56:53.853Z,56.50
2023-05-15T10:01:55.698Z,50.33
2023-05-15T10:06:57.511Z,50.72
2023-05-15T10:11:59.510Z,44.22
2023-05-15T10:17:01.555Z,42.65
2023-05-15T10:22:04.477Z,44.70
2023-05-15T10:27:08.981Z,44.60
2023-05-15T10:32:12.173Z,45.45
2023-05-15T10:37:14.994Z,47.85
2023-05-15T10:42:18.048Z,51.42
2023-05-15T10:47:20.503Z,49.28
2023-05-15T10:52:22.479Z,48.95
2023-05-15T10:57:24.346Z,49.92
2023-05-15T11:02:29.468Z,43.17
2023-05-15T11:07:31.587Z,49.53
2023-05-15T11:13:09.103Z,45.78
2023-05-15T11:18:11.086Z,46.08
2023-05-15T11:23:12.959Z,49.85
2023-05-15T11:28:22.852Z,56.80
2023-05-15T11:33:24.773Z,64.72
2023-05-15T11:38:27.230Z,62.90
2023-05-15T11:43:30.760Z,66.53
2023-05-15T11:48:35.017Z,71.13
2023-05-15T11:53:39.147Z,77.93
2023-05-15T11:58:43.407Z,83.30
2023-05-15T12:03:49.191Z,74.85
2023-05-15T12:08:52.650Z,71.68
2023-05-15T12:13:55.269Z,70.20
2023-05-15T12:18:58.031Z,71.25
2023-05-15T12:24:07.775Z,93.60
2023-05-15T12:29:10.577Z,103.65
2023-05-15T12:34:12.452Z,112.72
2023-05-15T12:39:14.288Z,117.90
2023-05-15T12:44:19.758Z,125.38
2023-05-15T12:49:22.809Z,124.03
2023-05-15T12:54:24.775Z,117.88
2023-05-15T12:59:26.655Z,113.38
2023-05-15T13:04:28.453Z,112.78
2023-05-15T13:09:30.676Z,74.10
2023-05-15T13:14:33.526Z,74.47
2023-05-15T13:19:35.542Z,70.78
2023-05-15T13:24:37.425Z,64.57
2023-05-15T13:29:39.195Z,52.80
2023-05-15T13:34:41.068Z,35.30
2023-05-15T13:39:42.852Z,27.17
2023-05-15T13:44:44.656Z,14.10
2023-05-15T13:49:46.599Z,6.38
2023-05-15T13:54:48.465Z,7.03
2023-05-15T13:59:50.337Z,8.80
2023-05-15T14:04:55.778Z,5.95
2023-05-15T14:09:58.282Z,8.93
2023-05-15T14:15:01.129Z,7.45
2023-05-15T14:20:03.135Z,8.40
2023-05-15T14:25:06.261Z,7.40
2023-05-15T14:30:08.663Z,10.25
2023-05-15T14:35:10.766Z,9.13
2023-05-15T14:40:13.043Z,6.43
2023-05-15T14:45:14.976Z,9.35
2023-05-15T14:50:16.826Z,7.05
2023-05-15T14:55:22.653Z,10.18
2023-05-15T15:00:24.574Z,10.55
2023-05-15T15:05:26.450Z,10.65
2023-05-15T15:10:28.596Z,13.63
2023-05-15T15:15:31.717Z,14.13
2023-05-15T15:20:36.360Z,14.68
2023-05-15T15:25:38.198Z,13.55
2023-05-15T15:30:40.171Z,8.30
2023-05-15T15:35:41.933Z,10.07
2023-05-15T15:40:43.926Z,9.80
2023-05-15T15:45:46.113Z,14.15
2023-05-15T15:50:47.980Z,12.55
2023-05-15T15:55:49.889Z,9.70
2023-05-15T16:00:51.763Z,12.40
2023-05-15T16:05:53.589Z,14.23
2023-05-15T16:10:55.503Z,13.38
2023-05-15T16:15:57.370Z,10.38
2023-05-15T16:20:59.230Z,10.98
2023-05-15T16:26:02.347Z,11.35
2023-05-15T16:31:05.017Z,10.95
2023-05-15T16:36:07.008Z,11.05
2023-05-15T16:41:09.134Z,12.98
2023-05-15T16:46:10.974Z,8.38
2023-05-15T16:51:12.955Z,14.60
2023-05-15T16:56:14.771Z,9.60
2023-05-15T17:01:16.750Z,6.93
2023-05-15T17:06:18.650Z,8.90
2023-05-15T17:11:21.605Z,10.30
2023-05-15T17:16:23.491Z,11.65
2023-05-15T17:21:25.431Z,7.45
2023-05-15T17:26:27.277Z,5.53
2023-05-15T17:31:29.624Z,8.63
2023-05-15T17:36:32.346Z,13.90
2023-05-15T17:41:34.238Z,10.20
2023-05-15T17:46:36.083Z,6.80
2023-05-15T17:51:38.334Z,11.85
2023-05-15T17:56:40.117Z,12.05
2023-05-15T18:01:42.100Z,13.43
2023-05-15T18:06:43.963Z,8.00
2023-05-15T18:11:45.766Z,7.60
2023-05-15T18:16:47.620Z,16.95
2023-05-15T18:21:49.486Z,12.02
2023-05-15T18:26:51.465Z,10.25
2023-05-15T18:31:53.358Z,16.85
2023-05-15T18:36:55.272Z,12.85
2023-05-15T18:41:57.094Z,9.50
2023-05-15T18:46:58.919Z,9.82
2023-05-15T18:52:00.926Z,17.88
2023-05-15T18:57:02.801Z,19.02
2023-05-15T19:02:05.025Z,17.73
2023-05-15T19:07:07.175Z,14.13
2023-05-15T19:12:09.076Z,17.40
2023-05-15T19:17:11.272Z,23.48
2023-05-15T19:22:13.663Z,19.15
2023-05-15T19:27:15.493Z,14.27
2023-05-15T19:32:17.404Z,17.27
2023-05-15T19:37:19.907Z,17.98
2023-05-15T19:42:21.708Z,15.52
2023-05-15T19:47:23.586Z,15.88
2023-05-15T19:52:25.715Z,11.25
2023-05-15T19:57:27.529Z,14.70
2023-05-15T20:02:29.373Z,12.23
2023-05-15T20:07:31.205Z,17.63
2023-05-15T20:12:33.146Z,19.30
2023-05-15T20:17:35.170Z,12.85
2023-05-15T20:22:37.698Z,19.67
2023-05-15T20:27:40.916Z,17.80
2023-05-15T20:32:42.907Z,10.95
2023-05-15T20:37:45.434Z,11.05
2023-05-15T20:42:47.204Z,20.17
2023-05-15T20:47:49.783Z,11.48
2023-05-15T20:52:51.593Z,11.50
2023-05-15T20:57:53.559Z,12.20
2023-05-15T21:02:55.571Z,10.38
2023-05-15T21:07:58.182Z,8.02
2023-05-15T21:12:59.960Z,16.10
2023-05-15T21:18:02.075Z,14.50
2023-05-15T21:23:03.875Z,13.48
2023-05-15T21:28:05.791Z,18.42
2023-05-15T21:33:07.733Z,14.93
2023-05-15T21:38:09.675Z,10.23
2023-05-15T21:43:11.470Z,9.45
2023-05-15T21:48:13.225Z,13.43
2023-05-15T21:53:15.412Z,19.35
2023-05-15T21:58:17.608Z,15.65
2023-05-15T22:03:20.777Z,12.93
2023-05-15T22:08:22.806Z,9.70
2023-05-15T22:13:24.886Z,14.02
2023-05-15T22:18:28.899Z,16.13
2023-05-15T22:23:31.500Z,18.60
2023-05-15T22:28:33.575Z,19.88
2023-05-15T22:33:35.535Z,8.23
2023-05-15T22:38:37.370Z,21.00
2023-05-15T22:43:39.197Z,11.88
2023-05-15T22:48:41.446Z,20.90
2023-05-15T22:53:43.213Z,11.95
2023-05-15T22:58:45.087Z,12.00
2023-05-15T23:03:47.272Z,14.10
2023-05-15T23:08:50.501Z,13.45
2023-05-15T23:13:52.328Z,9.70
2023-05-15T23:18:57.926Z,8.48
2023-05-15T23:23:59.933Z,19.48
2023-05-15T23:29:01.753Z,15.80
2023-05-15T23:34:03.590Z,14.57
2023-05-15T23:39:05.419Z,20.92
2023-05-15T23:44:07.267Z,14.07
2023-05-15T23:49:09.324Z,11.65
2023-05-15T23:54:11.656Z,13.77
2023-05-15T23:59:13.850Z,12.10
